sensor_id;sensor_type;location;lat;lon;timestamp;temperature;humidity
1936;DHT22;969;49.892;10.896;2023-11-19T00:00:29;20.50;57.50
1936;DHT22;969;49.892;10.896;2023-11-19T00:02:54;20.50;57.50
1936;DHT22;969;49.892;10.896;2023-11-19T00:05:20;20.50;57.60
1936;DHT22;969;49.892;10.896;2023-11-19T00:07:45;20.50;57.50
1936;DHT22;969;49.892;10.896;2023-11-19T00:10:13;20.50;57.60
1936;DHT22;969;49.892;10.896;2023-11-19T00:12:45;20.50;57.60
1936;DHT22;969;49.892;10.896;2023-11-19T00:15:14;20.50;57.60
1936;DHT22;969;49.892;10.896;2023-11-19T00:17:41;20.50;57.60
1936;DHT22;969;49.892;10.896;2023-11-19T00:20:14;20.50;57.60
1936;DHT22;969;49.892;10.896;2023-11-19T00:22:40;20.50;57.60
1936;DHT22;969;49.892;10.896;2023-11-19T00:25:07;20.50;57.60
1936;DHT22;969;49.892;10.896;2023-11-19T00:27:33;20.50;57.60
1936;DHT22;969;49.892;10.896;2023-11-19T00:29:58;20.50;57.60
1936;DHT22;969;49.892;10.896;2023-11-19T00:32:24;20.50;57.60
1936;DHT22;969;49.892;10.896;2023-11-19T00:34:50;20.50;57.60
1936;DHT22;969;49.892;10.896;2023-11-19T00:37:16;20.50;57.60
1936;DHT22;969;49.892;10.896;2023-11-19T00:39:42;20.50;57.60
1936;DHT22;969;49.892;10.896;2023-11-19T00:42:11;20.50;57.60
1936;DHT22;969;49.892;10.896;2023-11-19T00:44:37;20.50;57.60
1936;DHT22;969;49.892;10.896;2023-11-19T00:47:02;20.50;57.60
1936;DHT22;969;49.892;10.896;2023-11-19T00:49:28;20.50;57.60
1936;DHT22;969;49.892;10.896;2023-11-19T00:51:54;20.50;57.60
1936;DHT22;969;49.892;10.896;2023-11-19T00:54:20;20.50;57.60
1936;DHT22;969;49.892;10.896;2023-11-19T00:56:45;20.50;58.10
1936;DHT22;969;49.892;10.896;2023-11-19T00:59:11;20.50;57.60
1936;DHT22;969;49.892;10.896;2023-11-19T01:01:37;20.50;57.60
1936;DHT22;969;49.892;10.896;2023-11-19T01:04:02;20.50;57.60
1936;DHT22;969;49.892;10.896;2023-11-19T01:06:29;20.50;57.60
1936;DHT22;969;49.892;10.896;2023-11-19T01:08:55;20.50;57.60
1936;DHT22;969;49.892;10.896;2023-11-19T01:11:22;20.50;57.60
1936;DHT22;969;49.892;10.896;2023-11-19T01:13:49;20.50;57.60
1936;DHT22;969;49.892;10.896;2023-11-19T01:16:15;20.50;57.60
1936;DHT22;969;49.892;10.896;2023-11-19T01:18:41;20.50;57.60
1936;DHT22;969;49.892;10.896;2023-11-19T01:21:06;20.40;57.50
1936;DHT22;969;49.892;10.896;2023-11-19T01:23:32;20.50;57.60
1936;DHT22;969;49.892;10.896;2023-11-19T01:25:58;20.50;57.60
1936;DHT22;969;49.892;10.896;2023-11-19T01:28:23;20.50;57.60
1936;DHT22;969;49.892;10.896;2023-11-19T01:30:52;20.40;57.50
1936;DHT22;969;49.892;10.896;2023-11-19T01:33:18;20.50;57.60
1936;DHT22;969;49.892;10.896;2023-11-19T01:35:44;20.40;57.50
1936;DHT22;969;49.892;10.896;2023-11-19T01:38:09;20.40;57.50
1936;DHT22;969;49.892;10.896;2023-11-19T01:40:35;20.40;58.10
1936;DHT22;969;49.892;10.896;2023-11-19T01:43:03;20.40;57.50
1936;DHT22;969;49.892;10.896;2023-11-19T01:45:30;20.40;57.50
1936;DHT22;969;49.892;10.896;2023-11-19T01:47:57;20.40;57.60
1936;DHT22;969;49.892;10.896;2023-11-19T01:50:24;20.40;57.50
1936;DHT22;969;49.892;10.896;2023-11-19T01:52:54;20.40;57.50
1936;DHT22;969;49.892;10.896;2023-11-19T01:55:24;20.50;57.60
1936;DHT22;969;49.892;10.896;2023-11-19T01:57:51;20.40;57.50
1936;DHT22;969;49.892;10.896;2023-11-19T02:00:19;20.40;57.50
1936;DHT22;969;49.892;10.896;2023-11-19T02:02:46;20.40;57.50
1936;DHT22;969;49.892;10.896;2023-11-19T02:05:14;20.40;57.50
1936;DHT22;969;49.892;10.896;2023-11-19T02:07:39;20.40;57.50
1936;DHT22;969;49.892;10.896;2023-11-19T02:10:06;20.50;57.60
1936;DHT22;969;49.892;10.896;2023-11-19T02:12:33;20.40;57.50
1936;DHT22;969;49.892;10.896;2023-11-19T02:14:59;20.40;57.50
1936;DHT22;969;49.892;10.896;2023-11-19T02:17:30;20.40;57.50
1936;DHT22;969;49.892;10.896;2023-11-19T02:20:00;20.40;57.50
1936;DHT22;969;49.892;10.896;2023-11-19T02:22:26;20.40;57.50
1936;DHT22;969;49.892;10.896;2023-11-19T02:24:54;20.40;57.50
1936;DHT22;969;49.892;10.896;2023-11-19T02:30:02;20.40;57.50
1936;DHT22;969;49.892;10.896;2023-11-19T02:32:31;20.40;57.60
1936;DHT22;969;49.892;10.896;2023-11-19T02:34:57;20.40;57.50
1936;DHT22;969;49.892;10.896;2023-11-19T02:37:22;20.40;57.50
1936;DHT22;969;49.892;10.896;2023-11-19T02:39:48;20.40;57.60
1936;DHT22;969;49.892;10.896;2023-11-19T02:42:14;20.40;57.50
1936;DHT22;969;49.892;10.896;2023-11-19T02:44:44;20.40;57.50
1936;DHT22;969;49.892;10.896;2023-11-19T02:47:09;20.40;57.50
1936;DHT22;969;49.892;10.896;2023-11-19T02:49:35;20.40;57.50
1936;DHT22;969;49.892;10.896;2023-11-19T02:52:03;20.40;57.60
1936;DHT22;969;49.892;10.896;2023-11-19T02:54:30;20.40;57.50
1936;DHT22;969;49.892;10.896;2023-11-19T02:57:00;20.40;57.50
1936;DHT22;969;49.892;10.896;2023-11-19T02:59:27;20.40;57.50
1936;DHT22;969;49.892;10.896;2023-11-19T03:01:54;20.40;57.60
1936;DHT22;969;49.892;10.896;2023-11-19T03:04:20;20.40;57.50
1936;DHT22;969;49.892;10.896;2023-11-19T03:06:46;20.50;57.60
1936;DHT22;969;49.892;10.896;2023-11-19T03:09:12;20.40;57.50
1936;DHT22;969;49.892;10.896;2023-11-19T03:11:38;20.40;57.50
1936;DHT22;969;49.892;10.896;2023-11-19T03:14:04;20.40;57.50
1936;DHT22;969;49.892;10.896;2023-11-19T03:16:29;20.40;57.50
1936;DHT22;969;49.892;10.896;2023-11-19T03:18:55;20.40;57.50
1936;DHT22;969;49.892;10.896;2023-11-19T03:21:31;20.40;57.50
1936;DHT22;969;49.892;10.896;2023-11-19T03:23:58;20.40;57.50
1936;DHT22;969;49.892;10.896;2023-11-19T03:26:27;20.40;57.50
1936;DHT22;969;49.892;10.896;2023-11-19T03:28:53;20.40;57.50
1936;DHT22;969;49.892;10.896;2023-11-19T03:31:19;20.40;57.50
1936;DHT22;969;49.892;10.896;2023-11-19T03:33:45;20.40;57.50
1936;DHT22;969;49.892;10.896;2023-11-19T03:36:12;20.40;57.50
1936;DHT22;969;49.892;10.896;2023-11-19T03:38:38;20.40;57.50
1936;DHT22;969;49.892;10.896;2023-11-19T03:41:13;20.40;57.50
1936;DHT22;969;49.892;10.896;2023-11-19T03:43:40;20.40;57.50
1936;DHT22;969;49.892;10.896;2023-11-19T03:46:21;20.40;57.50
1936;DHT22;969;49.892;10.896;2023-11-19T03:48:48;20.40;57.50
1936;DHT22;969;49.892;10.896;2023-11-19T03:51:14;20.40;57.50
1936;DHT22;969;49.892;10.896;2023-11-19T03:53:44;20.40;57.50
1936;DHT22;969;49.892;10.896;2023-11-19T03:56:10;20.40;57.50
1936;DHT22;969;49.892;10.896;2023-11-19T03:58:37;20.40;57.60
1936;DHT22;969;49.892;10.896;2023-11-19T04:01:11;20.40;57.50
1936;DHT22;969;49.892;10.896;2023-11-19T04:03:38;20.40;57.60
1936;DHT22;969;49.892;10.896;2023-11-19T04:06:04;20.40;57.50
1936;DHT22;969;49.892;10.896;2023-11-19T04:08:30;20.40;58.10
1936;DHT22;969;49.892;10.896;2023-11-19T04:10:55;20.40;57.50
1936;DHT22;969;49.892;10.896;2023-11-19T04:13:21;20.40;57.50
1936;DHT22;969;49.892;10.896;2023-11-19T04:15:49;20.40;57.50
1936;DHT22;969;49.892;10.896;2023-11-19T04:18:14;20.40;57.50
1936;DHT22;969;49.892;10.896;2023-11-19T04:20:40;20.40;57.60
1936;DHT22;969;49.892;10.896;2023-11-19T04:23:07;20.40;57.50
1936;DHT22;969;49.892;10.896;2023-11-19T04:25:33;20.40;57.50
1936;DHT22;969;49.892;10.896;2023-11-19T04:28:00;20.40;57.50
1936;DHT22;969;49.892;10.896;2023-11-19T04:30:25;20.40;57.50
1936;DHT22;969;49.892;10.896;2023-11-19T04:32:51;20.40;57.50
1936;DHT22;969;49.892;10.896;2023-11-19T04:35:17;20.40;57.50
1936;DHT22;969;49.892;10.896;2023-11-19T04:37:44;20.40;57.50
1936;DHT22;969;49.892;10.896;2023-11-19T04:40:10;20.40;57.50
1936;DHT22;969;49.892;10.896;2023-11-19T04:42:37;20.40;57.50
1936;DHT22;969;49.892;10.896;2023-11-19T04:45:06;20.40;57.50
1936;DHT22;969;49.892;10.896;2023-11-19T04:47:35;20.40;57.50
1936;DHT22;969;49.892;10.896;2023-11-19T04:50:02;20.40;57.50
1936;DHT22;969;49.892;10.896;2023-11-19T04:52:28;20.40;57.50
1936;DHT22;969;49.892;10.896;2023-11-19T04:54:54;20.40;57.50
1936;DHT22;969;49.892;10.896;2023-11-19T04:57:19;20.40;57.50
1936;DHT22;969;49.892;10.896;2023-11-19T04:59:45;20.40;57.60
1936;DHT22;969;49.892;10.896;2023-11-19T05:02:10;20.40;57.50
1936;DHT22;969;49.892;10.896;2023-11-19T05:04:36;20.40;57.50
1936;DHT22;969;49.892;10.896;2023-11-19T05:07:05;20.40;57.60
1936;DHT22;969;49.892;10.896;2023-11-19T05:09:31;20.40;57.60
1936;DHT22;969;49.892;10.896;2023-11-19T05:11:56;20.40;57.50
1936;DHT22;969;49.892;10.896;2023-11-19T05:14:22;20.40;57.50
1936;DHT22;969;49.892;10.896;2023-11-19T05:16:49;20.40;57.50
1936;DHT22;969;49.892;10.896;2023-11-19T05:19:15;20.40;57.60
1936;DHT22;969;49.892;10.896;2023-11-19T05:21:44;20.40;57.60
1936;DHT22;969;49.892;10.896;2023-11-19T05:24:09;20.40;57.50
1936;DHT22;969;49.892;10.896;2023-11-19T05:26:35;20.40;57.50
1936;DHT22;969;49.892;10.896;2023-11-19T05:29:01;20.40;57.60
1936;DHT22;969;49.892;10.896;2023-11-19T05:31:26;20.40;57.60
1936;DHT22;969;49.892;10.896;2023-11-19T05:33:52;20.40;57.50
1936;DHT22;969;49.892;10.896;2023-11-19T05:36:17;20.40;57.60
1936;DHT22;969;49.892;10.896;2023-11-19T05:38:43;20.40;57.60
1936;DHT22;969;49.892;10.896;2023-11-19T05:41:10;20.40;57.50
1936;DHT22;969;49.892;10.896;2023-11-19T05:43:35;20.30;57.50
1936;DHT22;969;49.892;10.896;2023-11-19T05:46:01;20.30;57.50
1936;DHT22;969;49.892;10.896;2023-11-19T05:48:27;20.40;57.60
1936;DHT22;969;49.892;10.896;2023-11-19T05:50:53;20.30;57.50
1936;DHT22;969;49.892;10.896;2023-11-19T05:53:19;20.30;57.50
1936;DHT22;969;49.892;10.896;2023-11-19T05:55:45;20.40;57.60
1936;DHT22;969;49.892;10.896;2023-11-19T05:58:14;20.30;57.50
1936;DHT22;969;49.892;10.896;2023-11-19T06:00:40;20.40;57.60
1936;DHT22;969;49.892;10.896;2023-11-19T06:03:09;20.40;57.60
1936;DHT22;969;49.892;10.896;2023-11-19T06:05:34;20.40;57.60
1936;DHT22;969;49.892;10.896;2023-11-19T06:08:00;20.40;57.60
1936;DHT22;969;49.892;10.896;2023-11-19T06:10:26;20.40;57.60
1936;DHT22;969;49.892;10.896;2023-11-19T06:12:59;20.40;57.60
1936;DHT22;969;49.892;10.896;2023-11-19T06:15:26;20.40;57.50
1936;DHT22;969;49.892;10.896;2023-11-19T06:17:52;20.40;57.50
1936;DHT22;969;49.892;10.896;2023-11-19T06:20:18;20.40;58.10
1936;DHT22;969;49.892;10.896;2023-11-19T06:22:45;20.40;57.50
1936;DHT22;969;49.892;10.896;2023-11-19T06:25:11;20.40;57.50
1936;DHT22;969;49.892;10.896;2023-11-19T06:27:37;20.40;57.50
1936;DHT22;969;49.892;10.896;2023-11-19T06:30:03;20.40;57.50
1936;DHT22;969;49.892;10.896;2023-11-19T06:32:29;20.40;57.60
1936;DHT22;969;49.892;10.896;2023-11-19T06:34:55;20.40;57.50
1936;DHT22;969;49.892;10.896;2023-11-19T06:37:22;20.40;57.50
1936;DHT22;969;49.892;10.896;2023-11-19T06:39:48;20.40;57.50
1936;DHT22;969;49.892;10.896;2023-11-19T06:42:14;20.40;57.50
1936;DHT22;969;49.892;10.896;2023-11-19T06:44:39;20.40;57.50
1936;DHT22;969;49.892;10.896;2023-11-19T06:47:05;20.40;58.10
1936;DHT22;969;49.892;10.896;2023-11-19T06:49:31;20.40;57.50
1936;DHT22;969;49.892;10.896;2023-11-19T06:51:58;20.40;57.50
1936;DHT22;969;49.892;10.896;2023-11-19T06:54:24;20.40;57.50
1936;DHT22;969;49.892;10.896;2023-11-19T06:56:49;20.30;57.50
1936;DHT22;969;49.892;10.896;2023-11-19T06:59:15;20.40;57.50
1936;DHT22;969;49.892;10.896;2023-11-19T07:01:40;20.40;57.60
1936;DHT22;969;49.892;10.896;2023-11-19T07:04:11;20.40;57.60
1936;DHT22;969;49.892;10.896;2023-11-19T07:06:38;20.40;57.60
1936;DHT22;969;49.892;10.896;2023-11-19T07:09:04;20.40;57.60
1936;DHT22;969;49.892;10.896;2023-11-19T07:11:43;20.40;57.60
1936;DHT22;969;49.892;10.896;2023-11-19T07:14:11;20.40;57.60
1936;DHT22;969;49.892;10.896;2023-11-19T07:16:37;20.40;57.60
1936;DHT22;969;49.892;10.896;2023-11-19T07:19:03;20.40;57.60
1936;DHT22;969;49.892;10.896;2023-11-19T07:21:30;20.40;57.50
1936;DHT22;969;49.892;10.896;2023-11-19T07:23:56;20.40;57.60
1936;DHT22;969;49.892;10.896;2023-11-19T07:26:22;20.40;57.50
1936;DHT22;969;49.892;10.896;2023-11-19T07:28:49;20.50;57.60
1936;DHT22;969;49.892;10.896;2023-11-19T07:31:15;20.50;57.50
1936;DHT22;969;49.892;10.896;2023-11-19T07:33:41;20.50;57.50
1936;DHT22;969;49.892;10.896;2023-11-19T07:36:10;20.50;57.50
1936;DHT22;969;49.892;10.896;2023-11-19T07:38:36;20.50;57.50
1936;DHT22;969;49.892;10.896;2023-11-19T07:41:02;20.50;57.50
1936;DHT22;969;49.892;10.896;2023-11-19T07:43:28;20.50;57.50
1936;DHT22;969;49.892;10.896;2023-11-19T07:45:53;20.50;57.50
1936;DHT22;969;49.892;10.896;2023-11-19T07:48:19;20.50;57.40
1936;DHT22;969;49.892;10.896;2023-11-19T07:50:52;20.50;57.50
1936;DHT22;969;49.892;10.896;2023-11-19T07:53:18;20.60;57.50
1936;DHT22;969;49.892;10.896;2023-11-19T07:55:43;20.50;57.50
1936;DHT22;969;49.892;10.896;2023-11-19T07:58:12;20.60;57.50
1936;DHT22;969;49.892;10.896;2023-11-19T08:00:38;20.60;57.50
1936;DHT22;969;49.892;10.896;2023-11-19T08:03:04;20.60;57.50
1936;DHT22;969;49.892;10.896;2023-11-19T08:05:31;20.60;57.60
1936;DHT22;969;49.892;10.896;2023-11-19T08:07:56;20.60;57.60
1936;DHT22;969;49.892;10.896;2023-11-19T08:10:22;20.60;57.60
1936;DHT22;969;49.892;10.896;2023-11-19T08:12:48;20.60;57.60
1936;DHT22;969;49.892;10.896;2023-11-19T08:15:14;20.60;57.60
1936;DHT22;969;49.892;10.896;2023-11-19T08:17:41;20.60;57.60
1936;DHT22;969;49.892;10.896;2023-11-19T08:20:07;20.60;57.60
1936;DHT22;969;49.892;10.896;2023-11-19T08:22:36;20.60;57.60
1936;DHT22;969;49.892;10.896;2023-11-19T08:25:04;20.60;57.70
1936;DHT22;969;49.892;10.896;2023-11-19T08:27:30;20.60;57.70
1936;DHT22;969;49.892;10.896;2023-11-19T08:29:55;20.60;57.70
1936;DHT22;969;49.892;10.896;2023-11-19T08:32:27;20.60;57.70
1936;DHT22;969;49.892;10.896;2023-11-19T08:34:53;20.60;57.70
1936;DHT22;969;49.892;10.896;2023-11-19T08:37:19;20.50;57.60
1936;DHT22;969;49.892;10.896;2023-11-19T08:39:47;20.60;57.70
1936;DHT22;969;49.892;10.896;2023-11-19T08:42:13;20.60;57.70
1936;DHT22;969;49.892;10.896;2023-11-19T08:44:38;20.50;57.60
1936;DHT22;969;49.892;10.896;2023-11-19T08:47:04;20.60;57.70
1936;DHT22;969;49.892;10.896;2023-11-19T08:49:30;20.60;57.80
1936;DHT22;969;49.892;10.896;2023-11-19T08:51:55;20.60;57.70
1936;DHT22;969;49.892;10.896;2023-11-19T08:54:21;20.60;57.70
1936;DHT22;969;49.892;10.896;2023-11-19T08:56:48;20.60;57.60
1936;DHT22;969;49.892;10.896;2023-11-19T08:59:13;20.60;57.60
1936;DHT22;969;49.892;10.896;2023-11-19T09:01:40;20.60;57.60
1936;DHT22;969;49.892;10.896;2023-11-19T09:04:06;20.60;57.60
1936;DHT22;969;49.892;10.896;2023-11-19T09:06:32;20.60;57.60
1936;DHT22;969;49.892;10.896;2023-11-19T09:08:57;20.60;57.60
1936;DHT22;969;49.892;10.896;2023-11-19T09:11:25;20.60;57.50
1936;DHT22;969;49.892;10.896;2023-11-19T09:13:51;20.60;57.50
1936;DHT22;969;49.892;10.896;2023-11-19T09:16:17;20.60;57.60
1936;DHT22;969;49.892;10.896;2023-11-19T09:18:42;20.60;57.60
1936;DHT22;969;49.892;10.896;2023-11-19T09:21:08;20.60;57.60
1936;DHT22;969;49.892;10.896;2023-11-19T09:23:35;20.60;57.60
1936;DHT22;969;49.892;10.896;2023-11-19T09:26:05;20.60;57.70
1936;DHT22;969;49.892;10.896;2023-11-19T09:28:31;20.60;57.70
1936;DHT22;969;49.892;10.896;2023-11-19T09:30:56;20.60;57.60
1936;DHT22;969;49.892;10.896;2023-11-19T09:33:22;20.60;57.60
1936;DHT22;969;49.892;10.896;2023-11-19T09:35:47;20.60;57.60
1936;DHT22;969;49.892;10.896;2023-11-19T09:38:15;20.60;57.60
1936;DHT22;969;49.892;10.896;2023-11-19T09:40:40;20.60;57.60
1936;DHT22;969;49.892;10.896;2023-11-19T09:43:07;20.60;57.60
1936;DHT22;969;49.892;10.896;2023-11-19T09:45:48;20.60;57.60
1936;DHT22;969;49.892;10.896;2023-11-19T09:48:17;20.60;57.60
1936;DHT22;969;49.892;10.896;2023-11-19T09:50:47;20.60;57.70
1936;DHT22;969;49.892;10.896;2023-11-19T09:53:13;20.60;57.60
1936;DHT22;969;49.892;10.896;2023-11-19T09:55:39;20.60;57.60
1936;DHT22;969;49.892;10.896;2023-11-19T09:58:05;20.60;57.60
1936;DHT22;969;49.892;10.896;2023-11-19T10:00:32;20.60;57.60
1936;DHT22;969;49.892;10.896;2023-11-19T10:02:59;20.60;58.20
1936;DHT22;969;49.892;10.896;2023-11-19T10:05:25;20.60;57.70
1936;DHT22;969;49.892;10.896;2023-11-19T10:07:52;20.50;57.60
1936;DHT22;969;49.892;10.896;2023-11-19T10:10:17;20.60;57.70
1936;DHT22;969;49.892;10.896;2023-11-19T10:12:46;20.60;57.70
1936;DHT22;969;49.892;10.896;2023-11-19T10:15:23;20.60;57.70
1936;DHT22;969;49.892;10.896;2023-11-19T10:17:50;20.60;57.70
1936;DHT22;969;49.892;10.896;2023-11-19T10:20:16;20.50;57.70
1936;DHT22;969;49.892;10.896;2023-11-19T10:22:42;20.50;57.70
1936;DHT22;969;49.892;10.896;2023-11-19T10:25:27;20.50;57.70
1936;DHT22;969;49.892;10.896;2023-11-19T10:27:54;20.60;57.80
1936;DHT22;969;49.892;10.896;2023-11-19T10:30:27;20.60;57.90
1936;DHT22;969;49.892;10.896;2023-11-19T10:33:12;20.60;57.80
1936;DHT22;969;49.892;10.896;2023-11-19T10:35:56;20.60;57.80
1936;DHT22;969;49.892;10.896;2023-11-19T10:38:25;20.60;57.80
1936;DHT22;969;49.892;10.896;2023-11-19T10:40:52;20.60;57.90
1936;DHT22;969;49.892;10.896;2023-11-19T10:43:18;20.60;57.90
1936;DHT22;969;49.892;10.896;2023-11-19T10:45:44;20.60;57.90
1936;DHT22;969;49.892;10.896;2023-11-19T10:48:10;20.60;57.80
1936;DHT22;969;49.892;10.896;2023-11-19T10:50:39;20.60;57.80
1936;DHT22;969;49.892;10.896;2023-11-19T10:53:06;20.60;57.80
1936;DHT22;969;49.892;10.896;2023-11-19T10:55:33;20.60;57.80
1936;DHT22;969;49.892;10.896;2023-11-19T10:58:05;20.60;57.80
1936;DHT22;969;49.892;10.896;2023-11-19T11:00:37;20.60;57.80
1936;DHT22;969;49.892;10.896;2023-11-19T11:03:10;20.60;57.80
1936;DHT22;969;49.892;10.896;2023-11-19T11:05:37;20.60;57.80
1936;DHT22;969;49.892;10.896;2023-11-19T11:08:06;20.60;57.80
1936;DHT22;969;49.892;10.896;2023-11-19T11:10:35;20.60;57.80
1936;DHT22;969;49.892;10.896;2023-11-19T11:13:03;20.60;57.80
1936;DHT22;969;49.892;10.896;2023-11-19T11:15:30;20.60;57.80
1936;DHT22;969;49.892;10.896;2023-11-19T11:17:59;20.60;57.70
1936;DHT22;969;49.892;10.896;2023-11-19T11:20:32;20.60;57.70
1936;DHT22;969;49.892;10.896;2023-11-19T11:26:06;20.60;57.70
1936;DHT22;969;49.892;10.896;2023-11-19T11:28:46;20.60;57.70
1936;DHT22;969;49.892;10.896;2023-11-19T11:31:25;20.50;57.60
1936;DHT22;969;49.892;10.896;2023-11-19T11:37:18;20.50;57.60
1936;DHT22;969;49.892;10.896;2023-11-19T11:39:46;20.60;57.70
1936;DHT22;969;49.892;10.896;2023-11-19T11:45:06;20.50;57.70
1936;DHT22;969;49.892;10.896;2023-11-19T11:50:14;20.50;57.80
1936;DHT22;969;49.892;10.896;2023-11-19T11:55:27;20.50;57.90
1936;DHT22;969;49.892;10.896;2023-11-19T11:57:56;20.50;57.90
1936;DHT22;969;49.892;10.896;2023-11-19T12:00:26;20.50;58.00
1936;DHT22;969;49.892;10.896;2023-11-19T12:02:56;20.50;57.90
1936;DHT22;969;49.892;10.896;2023-11-19T12:05:21;20.50;57.80
1936;DHT22;969;49.892;10.896;2023-11-19T12:08:01;20.50;57.80
1936;DHT22;969;49.892;10.896;2023-11-19T12:10:31;20.60;57.90
1936;DHT22;969;49.892;10.896;2023-11-19T12:13:01;20.60;58.00
1936;DHT22;969;49.892;10.896;2023-11-19T12:15:27;20.60;58.00
1936;DHT22;969;49.892;10.896;2023-11-19T12:17:54;20.60;58.00
1936;DHT22;969;49.892;10.896;2023-11-19T12:20:24;20.60;58.00
1936;DHT22;969;49.892;10.896;2023-11-19T12:22:51;20.60;58.00
1936;DHT22;969;49.892;10.896;2023-11-19T12:25:18;20.60;57.90
1936;DHT22;969;49.892;10.896;2023-11-19T12:27:46;20.60;57.90
1936;DHT22;969;49.892;10.896;2023-11-19T12:30:12;20.60;57.90
1936;DHT22;969;49.892;10.896;2023-11-19T12:32:44;20.60;57.90
1936;DHT22;969;49.892;10.896;2023-11-19T12:35:11;20.60;58.00
1936;DHT22;969;49.892;10.896;2023-11-19T12:37:54;20.60;57.90
1936;DHT22;969;49.892;10.896;2023-11-19T12:40:25;20.60;57.90
1936;DHT22;969;49.892;10.896;2023-11-19T12:42:55;20.60;58.00
1936;DHT22;969;49.892;10.896;2023-11-19T12:45:21;20.60;58.00
1936;DHT22;969;49.892;10.896;2023-11-19T12:47:49;20.60;57.90
1936;DHT22;969;49.892;10.896;2023-11-19T12:50:15;20.60;57.90
1936;DHT22;969;49.892;10.896;2023-11-19T12:52:55;20.60;57.90
1936;DHT22;969;49.892;10.896;2023-11-19T12:55:28;20.70;58.00
1936;DHT22;969;49.892;10.896;2023-11-19T12:57:55;20.60;57.90
1936;DHT22;969;49.892;10.896;2023-11-19T13:00:25;20.60;57.90
1936;DHT22;969;49.892;10.896;2023-11-19T13:02:55;20.60;57.90
1936;DHT22;969;49.892;10.896;2023-11-19T13:05:32;20.60;57.90
1936;DHT22;969;49.892;10.896;2023-11-19T13:08:16;20.60;57.90
1936;DHT22;969;49.892;10.896;2023-11-19T13:13:14;20.60;57.90
1936;DHT22;969;49.892;10.896;2023-11-19T13:15:39;20.60;57.90
1936;DHT22;969;49.892;10.896;2023-11-19T13:18:05;20.60;57.90
1936;DHT22;969;49.892;10.896;2023-11-19T13:20:32;20.60;57.90
1936;DHT22;969;49.892;10.896;2023-11-19T13:23:05;20.60;57.90
1936;DHT22;969;49.892;10.896;2023-11-19T13:25:31;20.60;57.90
1936;DHT22;969;49.892;10.896;2023-11-19T13:28:00;20.60;58.50
1936;DHT22;969;49.892;10.896;2023-11-19T13:30:26;20.60;58.00
1936;DHT22;969;49.892;10.896;2023-11-19T13:32:52;20.60;58.00
1936;DHT22;969;49.892;10.896;2023-11-19T13:35:20;20.60;58.00
1936;DHT22;969;49.892;10.896;2023-11-19T13:37:45;20.60;58.00
1936;DHT22;969;49.892;10.896;2023-11-19T13:40:12;20.60;57.90
1936;DHT22;969;49.892;10.896;2023-11-19T13:42:42;20.60;57.90
1936;DHT22;969;49.892;10.896;2023-11-19T13:45:11;20.60;57.90
1936;DHT22;969;49.892;10.896;2023-11-19T13:47:42;20.60;57.90
1936;DHT22;969;49.892;10.896;2023-11-19T13:50:10;20.60;57.90
1936;DHT22;969;49.892;10.896;2023-11-19T13:52:37;20.60;57.90
1936;DHT22;969;49.892;10.896;2023-11-19T13:55:05;20.60;57.90
1936;DHT22;969;49.892;10.896;2023-11-19T13:57:31;20.60;57.90
1936;DHT22;969;49.892;10.896;2023-11-19T13:59:57;20.70;58.10
1936;DHT22;969;49.892;10.896;2023-11-19T14:02:22;20.60;58.00
1936;DHT22;969;49.892;10.896;2023-11-19T14:04:48;20.60;58.00
1936;DHT22;969;49.892;10.896;2023-11-19T14:07:14;20.60;58.00
1936;DHT22;969;49.892;10.896;2023-11-19T14:09:42;20.60;58.10
1936;DHT22;969;49.892;10.896;2023-11-19T14:12:07;20.60;58.00
1936;DHT22;969;49.892;10.896;2023-11-19T14:14:35;20.60;58.20
1936;DHT22;969;49.892;10.896;2023-11-19T14:17:02;20.60;58.10
1936;DHT22;969;49.892;10.896;2023-11-19T14:19:28;20.60;58.20
1936;DHT22;969;49.892;10.896;2023-11-19T14:21:54;20.70;58.10
1936;DHT22;969;49.892;10.896;2023-11-19T14:24:20;20.60;58.10
1936;DHT22;969;49.892;10.896;2023-11-19T14:26:48;20.70;58.20
1936;DHT22;969;49.892;10.896;2023-11-19T14:29:15;20.70;58.80
1936;DHT22;969;49.892;10.896;2023-11-19T14:31:41;20.60;58.10
1936;DHT22;969;49.892;10.896;2023-11-19T14:34:06;20.60;58.10
1936;DHT22;969;49.892;10.896;2023-11-19T14:36:32;20.60;58.00
1936;DHT22;969;49.892;10.896;2023-11-19T14:38:58;20.60;58.00
1936;DHT22;969;49.892;10.896;2023-11-19T14:41:24;20.60;58.00
1936;DHT22;969;49.892;10.896;2023-11-19T14:43:50;20.70;58.10
1936;DHT22;969;49.892;10.896;2023-11-19T14:46:15;20.60;58.00
1936;DHT22;969;49.892;10.896;2023-11-19T14:48:41;20.60;58.00
1936;DHT22;969;49.892;10.896;2023-11-19T14:51:07;20.60;58.00
1936;DHT22;969;49.892;10.896;2023-11-19T14:53:32;20.70;58.10
1936;DHT22;969;49.892;10.896;2023-11-19T14:55:58;20.70;58.10
1936;DHT22;969;49.892;10.896;2023-11-19T14:58:24;20.70;58.10
1936;DHT22;969;49.892;10.896;2023-11-19T15:00:51;20.70;58.10
1936;DHT22;969;49.892;10.896;2023-11-19T15:03:17;20.70;58.10
1936;DHT22;969;49.892;10.896;2023-11-19T15:05:45;20.60;58.00
1936;DHT22;969;49.892;10.896;2023-11-19T15:08:11;20.70;58.10
1936;DHT22;969;49.892;10.896;2023-11-19T15:10:37;20.70;58.00
1936;DHT22;969;49.892;10.896;2023-11-19T15:13:03;20.70;58.00
1936;DHT22;969;49.892;10.896;2023-11-19T15:15:29;20.70;58.00
1936;DHT22;969;49.892;10.896;2023-11-19T15:17:55;20.70;58.00
1936;DHT22;969;49.892;10.896;2023-11-19T15:20:20;20.70;58.00
1936;DHT22;969;49.892;10.896;2023-11-19T15:22:46;20.70;58.50
1936;DHT22;969;49.892;10.896;2023-11-19T15:25:12;20.60;57.90
1936;DHT22;969;49.892;10.896;2023-11-19T15:27:38;20.70;57.90
1936;DHT22;969;49.892;10.896;2023-11-19T15:30:04;20.60;57.90
1936;DHT22;969;49.892;10.896;2023-11-19T15:32:30;20.60;57.90
1936;DHT22;969;49.892;10.896;2023-11-19T15:34:57;20.60;57.90
1936;DHT22;969;49.892;10.896;2023-11-19T15:37:23;20.60;57.90
1936;DHT22;969;49.892;10.896;2023-11-19T15:39:49;20.60;57.90
1936;DHT22;969;49.892;10.896;2023-11-19T15:42:17;20.60;57.90
1936;DHT22;969;49.892;10.896;2023-11-19T15:44:42;20.70;58.00
1936;DHT22;969;49.892;10.896;2023-11-19T15:47:09;20.60;57.90
1936;DHT22;969;49.892;10.896;2023-11-19T15:49:35;20.60;57.90
1936;DHT22;969;49.892;10.896;2023-11-19T15:52:02;20.70;58.00
1936;DHT22;969;49.892;10.896;2023-11-19T15:54:28;20.70;58.00
1936;DHT22;969;49.892;10.896;2023-11-19T15:56:53;20.60;57.90
1936;DHT22;969;49.892;10.896;2023-11-19T15:59:19;20.60;57.90
1936;DHT22;969;49.892;10.896;2023-11-19T16:01:46;20.60;57.90
1936;DHT22;969;49.892;10.896;2023-11-19T16:04:11;20.60;57.90
1936;DHT22;969;49.892;10.896;2023-11-19T16:06:37;20.60;57.90
1936;DHT22;969;49.892;10.896;2023-11-19T16:09:03;20.60;58.50
1936;DHT22;969;49.892;10.896;2023-11-19T16:11:29;20.70;58.10
1936;DHT22;969;49.892;10.896;2023-11-19T16:13:54;20.60;58.00
1936;DHT22;969;49.892;10.896;2023-11-19T16:16:20;20.60;58.10
1936;DHT22;969;49.892;10.896;2023-11-19T16:18:46;20.60;58.00
1936;DHT22;969;49.892;10.896;2023-11-19T16:21:12;20.60;58.00